createdAt,value
2018-06-05T00:00:44.880Z,22.20
2018-06-05T00:01:44.796Z,21.20
2018-06-05T00:02:44.890Z,22.10
2018-06-05T00:03:44.756Z,21.30
2018-06-05T00:04:44.801Z,22.00
2018-06-05T00:05:44.718Z,23.50
2018-06-05T00:06:44.815Z,22.30
2018-06-05T00:07:44.679Z,23.10
2018-06-05T00:08:44.727Z,24.20
2018-06-05T00:09:44.635Z,23.50
2018-06-05T00:10:44.743Z,24.90
2018-06-05T00:11:44.598Z,23.70
2018-06-05T00:12:44.652Z,23.80
2018-06-05T00:13:44.556Z,23.90
2018-06-05T00:14:44.666Z,24.80
2018-06-05T00:15:44.515Z,24.10
2018-06-05T00:16:44.577Z,25.00
2018-06-05T00:17:44.474Z,24.80
2018-06-05T00:18:44.591Z,25.20
2018-06-05T00:19:44.435Z,23.80
2018-06-05T00:20:44.503Z,24.50
2018-06-05T00:21:44.390Z,25.20
2018-06-05T00:22:44.415Z,24.70
2018-06-05T00:23:44.351Z,25.00
2018-06-05T00:24:44.429Z,23.80
2018-06-05T00:25:44.310Z,23.20
2018-06-05T00:26:44.342Z,23.70
2018-06-05T00:27:44.269Z,24.30
2018-06-05T00:28:44.353Z,24.30
2018-06-05T00:29:44.229Z,25.60
2018-06-05T00:30:44.268Z,25.10
2018-06-05T00:31:44.186Z,24.80
2018-06-05T00:32:44.282Z,25.40
2018-06-05T00:33:44.146Z,24.60
2018-06-05T00:34:44.192Z,25.10
2018-06-05T00:35:44.110Z,25.60
2018-06-05T00:36:44.206Z,26.10
2018-06-05T00:37:44.063Z,25.60
2018-06-05T00:38:44.118Z,25.60
2018-06-05T00:39:44.023Z,25.10
2018-06-05T00:40:44.131Z,25.30
2018-06-05T00:41:43.984Z,25.80
2018-06-05T00:42:44.053Z,25.40
2018-06-05T00:43:43.944Z,26.10
2018-06-05T00:44:44.057Z,26.10
2018-06-05T00:45:43.911Z,26.30
2018-06-05T00:46:43.968Z,26.60
2018-06-05T00:47:43.858Z,26.50
2018-06-05T00:48:43.981Z,25.60
2018-06-05T00:49:43.815Z,26.10
2018-06-05T00:50:43.894Z,27.20
2018-06-05T00:51:43.775Z,27.30
2018-06-05T00:52:43.908Z,24.50
2018-06-05T00:53:43.734Z,25.60
2018-06-05T00:54:43.820Z,26.60
2018-06-05T00:55:43.692Z,27.60
2018-06-05T00:56:43.835Z,26.90
2018-06-05T00:57:43.651Z,26.00
2018-06-05T00:58:43.745Z,26.20
2018-06-05T00:59:43.612Z,27.20
2018-06-05T01:00:43.758Z,27.40
2018-06-05T01:01:43.569Z,27.00
2018-06-05T01:02:43.673Z,26.70
2018-06-05T01:03:43.528Z,26.20
2018-06-05T01:04:43.686Z,27.70
2018-06-05T01:05:43.484Z,27.00
2018-06-05T01:06:43.599Z,28.00
2018-06-05T01:07:43.444Z,27.30
2018-06-05T01:08:43.510Z,27.20
2018-06-05T01:09:43.407Z,28.50
2018-06-05T01:10:43.526Z,29.20
2018-06-05T01:11:43.360Z,29.30
2018-06-05T01:12:43.436Z,29.00
2018-06-05T01:13:43.319Z,29.30
2018-06-05T01:14:43.377Z,29.40
2018-06-05T01:15:43.279Z,29.50
2018-06-05T01:16:43.361Z,30.60
2018-06-05T01:17:43.236Z,30.20
2018-06-05T01:18:43.379Z,30.70
2018-06-05T01:19:43.195Z,30.50
2018-06-05T01:20:43.289Z,29.70
2018-06-05T01:21:43.155Z,29.90
2018-06-05T01:22:43.301Z,31.30
2018-06-05T01:23:43.110Z,29.50
2018-06-05T01:24:43.213Z,29.70
2018-06-05T01:25:43.070Z,30.20
2018-06-05T01:26:43.227Z,29.90
2018-06-05T01:27:43.025Z,28.70
2018-06-05T01:28:43.138Z,30.80
2018-06-05T01:29:42.986Z,30.20
2018-06-05T01:30:43.152Z,30.20
2018-06-05T01:31:42.941Z,30.60
2018-06-05T01:32:43.064Z,30.80
2018-06-05T01:33:42.907Z,30.30
2018-06-05T01:34:43.082Z,31.40
2018-06-05T01:35:42.864Z,30.90
2018-06-05T01:36:42.990Z,33.20
2018-06-05T01:37:42.818Z,31.20
2018-06-05T01:38:43.005Z,31.70
2018-06-05T01:39:42.780Z,33.90
2018-06-05T01:40:42.919Z,30.50
2018-06-05T01:41:42.738Z,31.50
2018-06-05T01:42:42.829Z,31.80
2018-06-05T01:43:42.693Z,31.60
2018-06-05T01:44:42.868Z,32.60
2018-06-05T01:45:42.657Z,32.40
2018-06-05T01:46:42.757Z,33.10
2018-06-05T01:47:42.608Z,33.60
2018-06-05T01:48:42.773Z,34.80
2018-06-05T01:49:42.568Z,33.30
2018-06-05T01:50:42.697Z,32.60
2018-06-05T01:51:42.530Z,34.70
2018-06-05T01:52:42.695Z,31.90
2018-06-05T01:53:42.486Z,32.30
2018-06-05T01:54:42.506Z,31.40
2018-06-05T01:55:42.455Z,32.20
2018-06-05T01:56:42.520Z,31.50
2018-06-05T01:57:42.404Z,31.20
2018-06-05T01:58:42.433Z,31.60
2018-06-05T01:59:42.371Z,31.60
2018-06-05T02:00:42.449Z,31.70
2018-06-05T02:01:42.326Z,31.00
2018-06-05T02:02:42.341Z,32.30
2018-06-05T02:03:42.279Z,30.90
2018-06-05T02:04:42.373Z,30.70
2018-06-05T02:05:42.237Z,29.80
2018-06-05T02:06:42.287Z,30.50
2018-06-05T02:07:42.196Z,31.50
2018-06-05T02:08:42.298Z,32.20
2018-06-05T02:09:42.153Z,30.40
2018-06-05T02:10:42.209Z,31.80
2018-06-05T02:11:42.114Z,32.00
2018-06-05T02:12:42.223Z,32.80
2018-06-05T02:13:42.071Z,32.00
2018-06-05T02:14:42.137Z,32.00
2018-06-05T02:15:42.034Z,31.70
2018-06-05T02:16:42.150Z,34.50
2018-06-05T02:17:41.995Z,30.80
2018-06-05T02:18:42.062Z,31.70
2018-06-05T02:19:41.949Z,31.00
2018-06-05T02:20:41.975Z,30.50
2018-06-05T02:21:41.909Z,31.10
2018-06-05T02:22:41.988Z,31.40
2018-06-05T02:23:41.867Z,32.00
2018-06-05T02:24:41.900Z,30.10
2018-06-05T02:25:41.825Z,29.70
2018-06-05T02:26:41.913Z,32.10
2018-06-05T02:27:41.788Z,30.60
2018-06-05T02:28:41.824Z,29.60
2018-06-05T02:29:41.742Z,31.00
2018-06-05T02:30:41.840Z,30.10
2018-06-05T02:31:41.701Z,29.70
2018-06-05T02:32:41.753Z,31.00
2018-06-05T02:33:41.664Z,29.70
2018-06-05T02:34:41.767Z,31.40
2018-06-05T02:35:41.621Z,30.80
2018-06-05T02:36:41.675Z,31.80
2018-06-05T02:37:41.579Z,30.20
2018-06-05T02:38:41.692Z,30.90
2018-06-05T02:39:41.535Z,29.80
2018-06-05T02:40:41.606Z,30.10
2018-06-05T02:41:41.495Z,32.00
2018-06-05T02:42:41.619Z,31.30
2018-06-05T02:43:41.454Z,31.50
2018-06-05T02:44:41.529Z,30.90
2018-06-05T02:45:41.412Z,31.70
2018-06-05T02:46:41.544Z,32.10
2018-06-05T02:47:41.373Z,30.90
2018-06-05T02:48:41.457Z,30.60
2018-06-05T02:49:41.335Z,31.80
2018-06-05T02:50:41.471Z,31.00
2018-06-05T02:51:41.290Z,30.20
2018-06-05T02:52:41.381Z,32.90
2018-06-05T02:53:41.248Z,31.10
2018-06-05T02:54:41.400Z,31.30
2018-06-05T02:55:41.221Z,31.60
2018-06-05T02:56:41.310Z,31.40
2018-06-05T02:57:41.167Z,33.00
2018-06-05T02:58:41.324Z,31.30
2018-06-05T02:59:41.127Z,32.10
2018-06-05T03:00:41.241Z,32.30
2018-06-05T03:01:41.086Z,31.50
2018-06-05T03:02:41.144Z,33.00
2018-06-05T03:03:41.047Z,34.40
2018-06-05T03:04:41.162Z,32.30
2018-06-05T03:05:41.006Z,32.00
2018-06-05T03:06:41.072Z,33.40
2018-06-05T03:07:40.961Z,31.70
2018-06-05T03:08:41.084Z,33.10
2018-06-05T03:09:40.919Z,33.90
2018-06-05T03:10:40.997Z,32.20
2018-06-05T03:11:40.881Z,32.90
2018-06-05T03:12:41.011Z,32.10
2018-06-05T03:13:40.837Z,33.60
2018-06-05T03:14:40.921Z,32.90
2018-06-05T03:15:40.798Z,32.40
2018-06-05T03:16:40.937Z,31.20
2018-06-05T03:17:40.755Z,32.80
2018-06-05T03:18:40.852Z,32.60
2018-06-05T03:19:40.712Z,34.30
2018-06-05T03:20:40.862Z,32.60
2018-06-05T03:21:40.678Z,30.40
2018-06-05T03:22:40.782Z,33.50
2018-06-05T03:23:40.635Z,30.50
2018-06-05T03:24:40.787Z,29.70
2018-06-05T03:25:40.596Z,31.10
2018-06-05T03:26:40.699Z,30.50
2018-06-05T03:27:40.550Z,30.40
2018-06-05T03:28:40.714Z,29.60
2018-06-05T03:29:40.512Z,28.90
2018-06-05T03:30:40.625Z,29.30
2018-06-05T03:31:40.470Z,29.00
2018-06-05T03:32:40.640Z,29.20
2018-06-05T03:33:40.427Z,27.10
2018-06-05T03:34:40.553Z,28.80
2018-06-05T03:35:40.387Z,28.60
2018-06-05T03:36:40.571Z,28.90
2018-06-05T03:37:40.345Z,28.50
2018-06-05T03:38:40.481Z,27.80
2018-06-05T03:39:40.309Z,28.30
2018-06-05T03:40:40.490Z,27.60
2018-06-05T03:41:40.263Z,28.00
2018-06-05T03:42:40.402Z,27.50
2018-06-05T03:43:40.225Z,28.00
2018-06-05T03:44:40.417Z,27.40
2018-06-05T03:45:40.182Z,26.50
2018-06-05T03:46:40.330Z,26.50
2018-06-05T03:47:40.141Z,26.90
2018-06-05T03:48:40.242Z,27.00
2018-06-05T03:49:40.098Z,25.80
2018-06-05T03:50:40.256Z,25.30
2018-06-05T03:51:40.064Z,26.10
2018-06-05T03:52:40.168Z,24.60
2018-06-05T03:53:40.023Z,25.00
2018-06-05T03:54:40.081Z,24.90
2018-06-05T03:55:39.979Z,24.90
2018-06-05T03:56:39.990Z,25.50
2018-06-05T03:57:39.936Z,25.50
2018-06-05T03:58:40.009Z,24.40
2018-06-05T03:59:39.897Z,25.40
2018-06-05T04:00:39.920Z,25.90
2018-06-05T04:01:39.858Z,25.70
2018-06-05T04:02:39.935Z,25.50
2018-06-05T04:03:39.816Z,25.40
2018-06-05T04:04:39.847Z,24.60
2018-06-05T04:05:39.772Z,25.30
2018-06-05T04:06:39.861Z,24.60
2018-06-05T04:07:39.734Z,24.50
2018-06-05T04:08:39.772Z,24.20
2018-06-05T04:09:39.692Z,25.00
2018-06-05T04:10:39.788Z,25.00
2018-06-05T04:11:39.653Z,24.00
2018-06-05T04:12:39.697Z,24.80
2018-06-05T04:13:39.614Z,24.70
2018-06-05T04:14:39.712Z,23.90
2018-06-05T04:15:39.571Z,25.00
2018-06-05T04:16:39.624Z,24.60
2018-06-05T04:17:39.527Z,25.00
2018-06-05T04:18:39.639Z,24.30
2018-06-05T04:19:39.487Z,25.00
2018-06-05T04:20:39.549Z,24.40
2018-06-05T04:21:39.453Z,25.10
2018-06-05T04:22:39.565Z,25.60
2018-06-05T04:23:39.408Z,24.60
2018-06-05T04:24:39.476Z,24.50
2018-06-05T04:25:39.366Z,25.00
2018-06-05T04:26:39.487Z,24.90
2018-06-05T04:27:39.373Z,24.80
2018-06-05T04:28:39.401Z,25.80
2018-06-05T04:29:39.287Z,24.90
2018-06-05T04:30:39.415Z,25.00
2018-06-05T04:31:39.244Z,24.90
2018-06-05T04:32:39.325Z,25.50
2018-06-05T04:33:39.204Z,26.00
2018-06-05T04:34:39.343Z,26.40
2018-06-05T04:35:39.163Z,25.90
2018-06-05T04:36:39.250Z,25.10
2018-06-05T04:37:39.121Z,24.20
2018-06-05T04:38:39.163Z,24.80
2018-06-05T04:39:39.081Z,25.20
2018-06-05T04:40:39.186Z,25.70
2018-06-05T04:41:39.047Z,26.10
2018-06-05T04:42:39.088Z,25.20
2018-06-05T04:43:39.001Z,25.20
2018-06-05T04:44:39.103Z,25.20
2018-06-05T04:45:38.960Z,24.80
2018-06-05T04:46:39.014Z,24.50
2018-06-05T04:47:38.917Z,25.50
2018-06-05T04:48:39.041Z,24.90
2018-06-05T04:49:38.880Z,28.60
2018-06-05T04:50:38.942Z,24.40
2018-06-05T04:51:38.836Z,25.10
2018-06-05T04:52:38.955Z,25.10
2018-06-05T04:53:38.796Z,24.50
2018-06-05T04:54:38.864Z,25.90
2018-06-05T04:55:38.755Z,24.60
2018-06-05T04:56:38.880Z,25.10
2018-06-05T04:57:38.716Z,26.00
2018-06-05T04:58:38.790Z,24.90
2018-06-05T04:59:38.677Z,24.40
2018-06-05T05:00:38.806Z,24.90
2018-06-05T05:01:38.646Z,25.00
2018-06-05T05:02:38.717Z,25.70
2018-06-05T05:03:38.595Z,24.90
2018-06-05T05:04:38.731Z,26.00
2018-06-05T05:05:38.551Z,25.70
2018-06-05T05:06:38.648Z,26.10
2018-06-05T05:07:38.512Z,25.80
2018-06-05T05:08:38.659Z,25.70
2018-06-05T05:09:38.473Z,26.20
2018-06-05T05:10:38.569Z,27.10
2018-06-05T05:11:38.430Z,25.60
2018-06-05T05:12:38.588Z,26.10
2018-06-05T05:13:38.391Z,26.30
2018-06-05T05:14:38.495Z,24.90
2018-06-05T05:15:38.350Z,25.80
2018-06-05T05:16:38.408Z,24.90
2018-06-05T05:17:38.312Z,26.30
2018-06-05T05:18:38.421Z,25.90
2018-06-05T05:19:38.268Z,25.90
2018-06-05T05:20:38.436Z,25.10
2018-06-05T05:21:38.230Z,25.30
2018-06-05T05:22:38.347Z,24.70
2018-06-05T05:23:38.186Z,24.90
2018-06-05T05:24:38.365Z,26.60
2018-06-05T05:25:38.152Z,24.60
2018-06-05T05:26:38.272Z,25.10
2018-06-05T05:27:38.106Z,24.00
2018-06-05T05:28:38.287Z,23.80
2018-06-05T05:29:38.064Z,24.50
2018-06-05T05:30:38.198Z,25.40
2018-06-05T05:31:38.025Z,25.60
2018-06-05T05:32:38.110Z,25.00
2018-06-05T05:33:37.983Z,24.80
2018-06-05T05:34:38.138Z,25.90
2018-06-05T05:35:37.943Z,24.90
2018-06-05T05:36:38.036Z,25.50
2018-06-05T05:37:37.903Z,24.50
2018-06-05T05:38:38.050Z,24.20
2018-06-05T05:39:37.863Z,24.40
2018-06-05T05:40:37.964Z,24.30
2018-06-05T05:41:37.823Z,24.50
2018-06-05T05:42:37.976Z,23.70
2018-06-05T05:43:37.783Z,23.80
2018-06-05T05:44:37.891Z,23.80
2018-06-05T05:45:37.742Z,25.20
2018-06-05T05:46:37.902Z,24.10
2018-06-05T05:47:37.699Z,24.20
2018-06-05T05:48:37.813Z,23.50
2018-06-05T05:49:37.659Z,23.40
2018-06-05T05:50:37.825Z,25.00
2018-06-05T05:51:37.622Z,23.90
2018-06-05T05:52:37.739Z,24.90
2018-06-05T05:53:37.578Z,23.90
2018-06-05T05:54:37.653Z,24.20
2018-06-05T05:55:37.539Z,25.60
2018-06-05T05:56:37.563Z,25.40
2018-06-05T05:57:37.497Z,25.20
2018-06-05T05:58:37.577Z,24.70
2018-06-05T05:59:37.461Z,26.30
2018-06-05T06:00:37.493Z,24.00
2018-06-05T06:01:37.419Z,25.30
2018-06-05T06:02:37.504Z,25.70
2018-06-05T06:03:37.379Z,25.50
2018-06-05T06:04:37.415Z,24.80
2018-06-05T06:05:37.337Z,24.80
2018-06-05T06:06:37.431Z,24.60
2018-06-05T06:07:37.296Z,26.20
2018-06-05T06:08:37.346Z,26.50
2018-06-05T06:09:37.258Z,25.60
2018-06-05T06:10:37.358Z,25.80
2018-06-05T06:11:37.217Z,24.90
2018-06-05T06:12:37.268Z,25.40
2018-06-05T06:13:37.176Z,27.00
2018-06-05T06:14:37.281Z,26.30
2018-06-05T06:15:37.136Z,25.00
2018-06-05T06:16:37.194Z,27.10
2018-06-05T06:17:37.099Z,26.30
2018-06-05T06:18:37.208Z,27.00
2018-06-05T06:19:37.055Z,26.00
2018-06-05T06:20:37.120Z,25.70
2018-06-05T06:21:37.017Z,24.50
2018-06-05T06:22:37.135Z,25.10
2018-06-05T06:23:36.974Z,26.10
2018-06-05T06:24:37.046Z,27.40
2018-06-05T06:25:36.935Z,27.70
2018-06-05T06:26:37.059Z,26.80
2018-06-05T06:27:36.902Z,27.80
2018-06-05T06:28:36.970Z,28.00
2018-06-05T06:29:36.855Z,28.90
2018-06-05T06:30:36.989Z,30.20
2018-06-05T06:31:36.815Z,28.80
2018-06-05T06:32:36.896Z,30.60
2018-06-05T06:33:36.778Z,30.20
2018-06-05T06:34:36.924Z,30.50
2018-06-05T06:35:36.741Z,29.90
2018-06-05T06:36:36.824Z,30.30
2018-06-05T06:37:36.697Z,29.70
2018-06-05T06:38:36.776Z,33.50
2018-06-05T06:39:36.655Z,29.70
2018-06-05T06:40:36.748Z,30.50
2018-06-05T06:41:36.622Z,29.10
2018-06-05T06:42:36.663Z,32.80
2018-06-05T06:43:36.576Z,29.80
2018-06-05T06:44:36.676Z,32.10
2018-06-05T06:45:36.538Z,28.90
2018-06-05T06:46:36.586Z,31.80
2018-06-05T06:47:36.497Z,30.80
2018-06-05T06:48:36.644Z,30.00
2018-06-05T06:49:36.456Z,29.00
2018-06-05T06:50:36.519Z,30.10
2018-06-05T06:51:36.417Z,33.00
2018-06-05T06:52:36.528Z,31.70
2018-06-05T06:53:36.376Z,32.50
2018-06-05T06:54:36.442Z,31.80
2018-06-05T06:55:36.338Z,32.30
2018-06-05T06:56:36.455Z,34.70
2018-06-05T06:57:36.297Z,35.50
2018-06-05T06:58:36.365Z,36.20
2018-06-05T06:59:36.256Z,36.40
2018-06-05T07:00:36.379Z,39.40
2018-06-05T07:01:36.221Z,35.80
2018-06-05T07:02:36.291Z,39.90
2018-06-05T07:03:36.204Z,41.60
2018-06-05T07:04:36.304Z,40.40
2018-06-05T07:05:36.138Z,39.10
2018-06-05T07:06:36.219Z,40.20
2018-06-05T07:07:36.101Z,37.90
2018-06-05T07:08:36.232Z,41.20
2018-06-05T07:09:36.057Z,38.90
2018-06-05T07:10:36.143Z,37.00
2018-06-05T07:11:36.019Z,37.90
2018-06-05T07:12:36.156Z,37.30
2018-06-05T07:13:35.979Z,38.20
2018-06-05T07:14:36.067Z,36.30
2018-06-05T07:15:35.944Z,38.10
2018-06-05T07:16:36.083Z,39.10
2018-06-05T07:17:35.899Z,35.40
2018-06-05T07:18:35.999Z,37.80
2018-06-05T07:19:35.858Z,38.90
2018-06-05T07:20:36.013Z,37.50
2018-06-05T07:21:35.817Z,39.90
2018-06-05T07:22:35.926Z,40.50
2018-06-05T07:23:35.781Z,41.00
2018-06-05T07:24:35.937Z,41.10
2018-06-05T07:25:35.740Z,44.00
2018-06-05T07:26:35.851Z,43.40
2018-06-05T07:27:35.724Z,42.80
2018-06-05T07:28:35.865Z,44.60
2018-06-05T07:29:35.658Z,42.20
2018-06-05T07:30:35.683Z,41.50
2018-06-05T07:31:35.618Z,42.90
2018-06-05T07:32:35.787Z,43.30
2018-06-05T07:33:35.577Z,44.20
2018-06-05T07:34:35.698Z,42.80
2018-06-05T07:35:35.543Z,44.90
2018-06-05T07:36:35.713Z,40.70
2018-06-05T07:37:35.498Z,41.00
2018-06-05T07:38:35.625Z,42.60
2018-06-05T07:39:35.457Z,40.30
2018-06-05T07:40:35.647Z,41.60
2018-06-05T07:41:35.417Z,39.80
2018-06-05T07:42:35.550Z,38.40
2018-06-05T07:43:35.378Z,40.40
2018-06-05T07:44:35.566Z,38.20
2018-06-05T07:45:35.338Z,39.70
2018-06-05T07:46:35.481Z,41.20
2018-06-05T07:47:35.297Z,41.00
2018-06-05T07:48:35.490Z,41.60
2018-06-05T07:49:35.259Z,43.30
2018-06-05T07:50:35.403Z,44.50
2018-06-05T07:51:35.215Z,47.80
2018-06-05T07:52:35.416Z,42.80
2018-06-05T07:53:35.174Z,43.80
2018-06-05T07:54:35.230Z,42.80
2018-06-05T07:55:35.137Z,44.50
2018-06-05T07:56:35.139Z,44.20
2018-06-05T07:57:35.095Z,46.10
2018-06-05T07:58:35.150Z,47.40
2018-06-05T07:59:35.056Z,47.20
2018-06-05T08:00:35.063Z,46.70
2018-06-05T08:01:35.017Z,48.50
2018-06-05T08:02:35.077Z,48.60
2018-06-05T08:03:34.977Z,47.30
2018-06-05T08:04:34.989Z,47.10
2018-06-05T08:05:34.937Z,47.70
2018-06-05T08:06:35.004Z,51.00
2018-06-05T08:07:34.900Z,47.50
2018-06-05T08:08:34.919Z,47.70
2018-06-05T08:09:34.858Z,48.60
2018-06-05T08:10:34.930Z,45.60
2018-06-05T08:11:34.817Z,48.60
2018-06-05T08:12:34.843Z,50.80
2018-06-05T08:13:34.776Z,50.90
2018-06-05T08:14:34.854Z,47.30
2018-06-05T08:15:34.736Z,48.20
2018-06-05T08:16:34.765Z,49.30
2018-06-05T08:17:34.697Z,50.80
2018-06-05T08:18:34.781Z,50.90
2018-06-05T08:19:34.656Z,49.30
2018-06-05T08:20:34.692Z,48.40
2018-06-05T08:21:34.619Z,48.70
2018-06-05T08:22:34.708Z,47.40
2018-06-05T08:23:34.580Z,49.10
2018-06-05T08:24:34.619Z,45.70
2018-06-05T08:25:34.539Z,49.20
2018-06-05T08:26:34.636Z,50.50
2018-06-05T08:27:34.500Z,46.40
2018-06-05T08:28:34.544Z,48.60
2018-06-05T08:29:34.459Z,47.30
2018-06-05T08:30:34.557Z,46.50
2018-06-05T08:31:34.420Z,47.80
2018-06-05T08:32:34.469Z,45.60
2018-06-05T08:33:34.379Z,49.20
2018-06-05T08:34:34.485Z,47.90
2018-06-05T08:35:34.343Z,48.20
2018-06-05T08:36:34.395Z,46.90
2018-06-05T08:37:34.302Z,45.40
2018-06-05T08:38:34.410Z,46.60
2018-06-05T08:39:34.268Z,48.10
2018-06-05T08:40:34.322Z,45.50
2018-06-05T08:41:34.225Z,44.40
2018-06-05T08:42:34.335Z,45.80
2018-06-05T08:43:34.186Z,44.40
2018-06-05T08:44:34.249Z,45.80
2018-06-05T08:45:34.147Z,45.10
2018-06-05T08:46:34.261Z,44.40
2018-06-05T08:47:34.108Z,45.50
2018-06-05T08:48:34.173Z,46.70
2018-06-05T08:49:34.071Z,44.50
2018-06-05T08:50:34.186Z,45.00
2018-06-05T08:51:34.030Z,45.40
2018-06-05T08:52:34.099Z,44.70
2018-06-05T08:53:33.993Z,46.40
2018-06-05T08:54:34.112Z,45.60
2018-06-05T08:55:33.953Z,48.20
2018-06-05T08:56:34.025Z,46.80
2018-06-05T08:57:33.919Z,44.80
2018-06-05T08:58:34.040Z,44.30
2018-06-05T08:59:33.881Z,43.80
2018-06-05T09:00:33.957Z,45.90
2018-06-05T09:01:33.838Z,42.70
2018-06-05T09:02:33.966Z,47.00
2018-06-05T09:03:33.804Z,44.20
2018-06-05T09:04:33.878Z,44.90
2018-06-05T09:05:33.762Z,44.90
2018-06-05T09:06:33.893Z,46.20
2018-06-05T09:07:33.722Z,47.40
2018-06-05T09:08:33.806Z,47.40
2018-06-05T09:09:33.686Z,51.10
2018-06-05T09:10:33.817Z,48.20
2018-06-05T09:11:33.645Z,49.60
2018-06-05T09:12:33.730Z,45.80
2018-06-05T09:13:33.606Z,45.30
2018-06-05T09:14:33.643Z,44.70
2018-06-05T09:15:33.569Z,45.20
2018-06-05T09:16:33.655Z,45.70
2018-06-05T09:17:33.530Z,42.90
2018-06-05T09:18:33.669Z,43.50
2018-06-05T09:19:33.492Z,41.20
2018-06-05T09:20:33.579Z,42.60
2018-06-05T09:21:33.453Z,40.10
2018-06-05T09:22:33.595Z,43.20
2018-06-05T09:23:33.418Z,39.50
2018-06-05T09:24:33.507Z,43.50
2018-06-05T09:25:33.379Z,42.80
2018-06-05T09:26:33.522Z,40.90
2018-06-05T09:27:33.342Z,41.40
2018-06-05T09:28:33.432Z,42.60
2018-06-05T09:29:33.303Z,42.80
2018-06-05T09:30:33.451Z,45.80
2018-06-05T09:31:33.267Z,41.80
2018-06-05T09:32:33.358Z,45.00
2018-06-05T09:33:33.228Z,43.90
2018-06-05T09:34:33.414Z,45.70
2018-06-05T09:35:33.192Z,45.80
2018-06-05T09:36:33.284Z,47.20
2018-06-05T09:37:33.154Z,49.30
2018-06-05T09:38:33.297Z,54.00
2018-06-05T09:39:33.160Z,50.00
2018-06-05T09:42:10.928Z,43.00
2018-06-05T09:43:04.798Z,43.60
2018-06-05T09:44:04.975Z,50.00
2018-06-05T09:45:04.755Z,44.30
2018-06-05T09:46:04.890Z,45.00
2018-06-05T09:47:04.720Z,43.90
2018-06-05T09:48:04.902Z,43.80
2018-06-05T09:49:04.683Z,44.80
2018-06-05T09:50:04.815Z,45.80
2018-06-05T09:51:04.644Z,44.50
2018-06-05T09:52:04.831Z,42.40
2018-06-05T09:53:04.606Z,43.30
2018-06-05T09:54:04.739Z,43.10
2018-06-05T09:55:04.567Z,48.40
2018-06-05T09:56:04.753Z,47.50
2018-06-05T09:57:04.527Z,46.20
2018-06-05T09:58:04.672Z,47.80
2018-06-05T09:59:04.492Z,50.60
2018-06-05T10:00:04.578Z,46.50
2018-06-05T10:01:04.455Z,46.50
2018-06-05T10:02:04.489Z,43.60
2018-06-05T10:03:04.419Z,43.90
2018-06-05T10:04:04.502Z,45.30
2018-06-05T10:05:04.380Z,44.90
2018-06-05T10:06:04.417Z,38.00
2018-06-05T10:07:04.343Z,36.10
2018-06-05T10:08:04.430Z,38.50
2018-06-05T10:09:04.332Z,39.90
2018-06-05T10:10:04.343Z,39.80
2018-06-05T10:11:04.269Z,41.00
2018-06-05T10:12:04.356Z,38.10
2018-06-05T10:13:04.232Z,38.90
2018-06-05T10:14:04.306Z,41.80
2018-06-05T10:15:04.196Z,39.80
2018-06-05T10:16:04.284Z,41.90
2018-06-05T10:17:04.156Z,39.20
2018-06-05T10:18:04.193Z,39.30
2018-06-05T10:19:04.122Z,39.40
2018-06-05T10:20:04.206Z,37.00
2018-06-05T10:21:04.087Z,39.00
2018-06-05T10:22:04.118Z,38.10
2018-06-05T10:23:04.051Z,41.30
2018-06-05T10:24:04.133Z,44.10
2018-06-05T10:25:04.013Z,43.00
2018-06-05T10:26:04.044Z,43.20
2018-06-05T10:27:03.981Z,39.30
2018-06-05T10:28:04.059Z,41.80
2018-06-05T10:29:03.933Z,44.00
2018-06-05T10:30:03.972Z,40.80
2018-06-05T10:31:03.898Z,43.80
2018-06-05T10:32:03.984Z,43.00
2018-06-05T10:33:03.861Z,43.30
2018-06-05T10:34:03.897Z,43.90
2018-06-05T10:35:03.828Z,44.80
2018-06-05T10:36:03.911Z,41.50
2018-06-05T10:37:03.788Z,41.70
2018-06-05T10:38:03.924Z,46.20
2018-06-05T10:39:03.753Z,43.70
2018-06-05T10:40:03.837Z,47.70
2018-06-05T10:41:03.714Z,46.80
2018-06-05T10:42:03.850Z,45.30
2018-06-05T10:43:03.679Z,48.70
2018-06-05T10:44:03.763Z,41.80
2018-06-05T10:45:03.643Z,45.90
2018-06-05T10:46:03.775Z,42.60
2018-06-05T10:47:03.607Z,42.10
2018-06-05T10:48:03.692Z,42.50
2018-06-05T10:49:03.567Z,43.40
2018-06-05T10:50:03.701Z,43.10
2018-06-05T10:51:03.543Z,45.30
2018-06-05T10:52:03.614Z,46.50
2018-06-05T10:53:03.495Z,48.00
2018-06-05T10:54:03.628Z,45.10
2018-06-05T10:55:03.460Z,50.80
2018-06-05T10:56:03.541Z,52.50
2018-06-05T10:57:03.428Z,53.10
2018-06-05T10:58:03.553Z,58.50
2018-06-05T10:59:03.386Z,56.50
2018-06-05T11:00:03.471Z,58.70
2018-06-05T11:01:03.353Z,57.30
2018-06-05T11:02:03.480Z,58.40
2018-06-05T11:03:03.312Z,58.40
2018-06-05T11:04:03.391Z,58.50
2018-06-05T11:05:03.279Z,59.70
2018-06-05T11:06:03.416Z,59.30
2018-06-05T11:07:03.241Z,63.80
2018-06-05T11:08:03.317Z,59.40
2018-06-05T11:09:03.203Z,60.60
2018-06-05T11:10:03.332Z,57.60
2018-06-05T11:11:03.164Z,58.20
2018-06-05T11:12:03.247Z,59.30
2018-06-05T11:13:03.133Z,57.30
2018-06-05T11:14:03.256Z,56.90
2018-06-05T11:15:03.091Z,58.60
2018-06-05T11:16:03.169Z,55.00
2018-06-05T11:17:03.053Z,55.60
2018-06-05T11:18:03.185Z,58.50
2018-06-05T11:19:03.017Z,57.50
2018-06-05T11:20:03.099Z,61.20
2018-06-05T11:21:02.981Z,63.70
2018-06-05T11:22:03.119Z,67.20
2018-06-05T11:23:02.947Z,66.40
2018-06-05T11:24:03.025Z,67.30
2018-06-05T11:25:02.911Z,63.30
2018-06-05T11:26:03.038Z,65.70
2018-06-05T11:27:02.872Z,68.20
2018-06-05T11:28:03.052Z,62.30
2018-06-05T11:29:02.834Z,61.70
2018-06-05T11:30:03.002Z,67.10
2018-06-05T11:31:02.803Z,65.00
2018-06-05T11:32:02.979Z,67.40
2018-06-05T11:33:02.764Z,65.60
2018-06-05T11:34:02.891Z,65.80
2018-06-05T11:35:02.726Z,66.90
2018-06-05T11:36:02.714Z,63.90
2018-06-05T11:37:02.713Z,68.50
2018-06-05T11:38:02.673Z,63.90
2018-06-05T11:39:02.726Z,65.50
2018-06-05T11:40:02.637Z,63.90
2018-06-05T11:41:02.634Z,64.60
2018-06-05T11:42:02.601Z,64.50
2018-06-05T11:43:02.649Z,67.40
2018-06-05T11:44:02.568Z,65.70
2018-06-05T11:45:02.721Z,64.00
2018-06-05T11:46:02.533Z,63.50
2018-06-05T11:47:02.576Z,63.70
2018-06-05T11:48:02.496Z,64.40
2018-06-05T11:49:02.590Z,61.10
2018-06-05T11:50:02.458Z,59.60
2018-06-05T11:51:02.496Z,61.30
2018-06-05T11:52:02.424Z,59.70
2018-06-05T11:53:02.509Z,61.70
2018-06-05T11:54:02.404Z,58.40
2018-06-05T11:55:02.420Z,61.40
2018-06-05T11:56:02.352Z,60.60
2018-06-05T11:57:02.433Z,59.80
2018-06-05T11:58:02.315Z,60.60
2018-06-05T11:59:02.343Z,61.40
2018-06-05T12:00:02.280Z,58.10
2018-06-05T12:01:02.357Z,61.70
2018-06-05T12:02:02.247Z,61.30
2018-06-05T12:03:02.262Z,63.80
2018-06-05T12:04:02.209Z,63.80
2018-06-05T12:05:02.281Z,59.60
2018-06-05T12:06:02.175Z,60.00
2018-06-05T12:07:02.184Z,58.40
2018-06-05T12:08:02.144Z,59.00
2018-06-05T12:09:02.197Z,57.00
2018-06-05T12:10:02.111Z,59.70
2018-06-05T12:11:02.126Z,57.50
2018-06-05T12:12:02.070Z,57.90
2018-06-05T12:13:02.140Z,57.00
2018-06-05T12:14:02.037Z,58.70
2018-06-05T12:15:02.160Z,59.00
2018-06-05T12:16:02.004Z,56.90
2018-06-05T12:17:02.064Z,56.00
2018-06-05T12:18:01.969Z,53.20
2018-06-05T12:19:02.081Z,54.70
2018-06-05T12:20:01.934Z,52.30
2018-06-05T12:21:01.989Z,54.00
2018-06-05T12:22:01.903Z,55.10
2018-06-05T12:23:02.003Z,51.80
2018-06-05T12:24:01.867Z,53.30
2018-06-05T12:25:01.916Z,53.50
2018-06-05T12:26:01.834Z,53.80
2018-06-05T12:27:01.930Z,51.40
2018-06-05T12:28:01.799Z,48.40
2018-06-05T12:29:01.843Z,49.80
2018-06-05T12:30:01.766Z,51.00
2018-06-05T12:31:01.894Z,48.00
2018-06-05T12:32:01.732Z,50.60
2018-06-05T12:33:01.769Z,47.70
2018-06-05T12:34:01.698Z,52.10
2018-06-05T12:35:01.784Z,49.10
2018-06-05T12:36:01.670Z,50.60
2018-06-05T12:37:01.845Z,52.80
2018-06-05T12:38:01.634Z,55.20
2018-06-05T12:39:01.712Z,50.30
2018-06-05T12:40:01.599Z,58.40
2018-06-05T12:41:01.723Z,56.80
2018-06-05T12:42:01.568Z,55.80
2018-06-05T12:43:01.637Z,55.40
2018-06-05T12:44:01.539Z,51.90
2018-06-05T12:45:01.648Z,55.70
2018-06-05T12:46:01.504Z,57.40
2018-06-05T12:47:01.560Z,55.40
2018-06-05T12:48:01.471Z,54.90
2018-06-05T12:49:01.587Z,55.10
2018-06-05T12:50:01.440Z,57.40
2018-06-05T12:51:01.486Z,59.60
2018-06-05T12:52:01.405Z,59.70
2018-06-05T12:53:01.501Z,57.80
2018-06-05T12:54:01.395Z,56.20